sensor_id;sensor_type;location;lat;lon;timestamp;pressure;altitude;pressure_sealevel;temperature;humidity
42361;BME280;54542;51.562;0.004;2022-08-19T01:32:12;101247.31;;;14.97;71.52
42361;BME280;54542;51.562;0.004;2022-08-19T01:34:41;101250.10;;;17.39;68.37
42361;BME280;54542;51.562;0.004;2022-08-19T01:37:10;101252.59;;;17.24;65.73
42361;BME280;54542;51.562;0.004;2022-08-19T01:39:39;101248.76;;;18.22;63.60
42361;BME280;54542;51.562;0.004;2022-08-19T01:42:08;101241.93;;;18.45;61.97
42361;BME280;54542;51.562;0.004;2022-08-19T01:44:35;101237.95;;;18.55;61.96
42361;BME280;54542;51.562;0.004;2022-08-19T01:47:03;101241.03;;;18.89;61.28
42361;BME280;54542;51.562;0.004;2022-08-19T01:49:31;101239.26;;;18.99;60.78
42361;BME280;54542;51.562;0.004;2022-08-19T01:51:59;101242.35;;;18.62;60.75
42361;BME280;54542;51.562;0.004;2022-08-19T01:54:27;101244.06;;;18.88;60.92
42361;BME280;54542;51.562;0.004;2022-08-19T01:57:00;101243.40;;;18.78;61.27
42361;BME280;54542;51.562;0.004;2022-08-19T01:59:28;101245.65;;;18.55;60.74
42361;BME280;54542;51.562;0.004;2022-08-19T02:01:57;101246.17;;;18.76;60.82
42361;BME280;54542;51.562;0.004;2022-08-19T02:04:23;101250.15;;;18.60;61.52
42361;BME280;54542;51.562;0.004;2022-08-19T02:06:51;101248.69;;;17.83;62.99
42361;BME280;54542;51.562;0.004;2022-08-19T02:09:19;101246.05;;;18.57;62.05
42361;BME280;54542;51.562;0.004;2022-08-19T02:11:46;101247.39;;;19.04;61.35
42361;BME280;54542;51.562;0.004;2022-08-19T02:14:14;101246.32;;;18.81;61.03
42361;BME280;54542;51.562;0.004;2022-08-19T02:16:42;101239.76;;;18.74;60.85
42361;BME280;54542;51.562;0.004;2022-08-19T02:19:10;101241.16;;;19.19;60.13
42361;BME280;54542;51.562;0.004;2022-08-19T02:21:37;101246.17;;;18.75;60.12
42361;BME280;54542;51.562;0.004;2022-08-19T02:24:05;101245.73;;;19.28;60.68
42361;BME280;54542;51.562;0.004;2022-08-19T02:26:33;101244.23;;;18.83;60.77
42361;BME280;54542;51.562;0.004;2022-08-19T02:29:00;101241.85;;;19.17;60.80
42361;BME280;54542;51.562;0.004;2022-08-19T02:31:28;101240.57;;;19.41;60.31
42361;BME280;54542;51.562;0.004;2022-08-19T02:33:56;101242.05;;;18.31;62.32
42361;BME280;54542;51.562;0.004;2022-08-19T02:36:24;101243.01;;;19.20;61.05
42361;BME280;54542;51.562;0.004;2022-08-19T02:38:53;101244.93;;;19.40;60.27
42361;BME280;54542;51.562;0.004;2022-08-19T02:41:22;101248.42;;;18.94;61.22
42361;BME280;54542;51.562;0.004;2022-08-19T02:43:51;101241.69;;;19.17;60.78
42361;BME280;54542;51.562;0.004;2022-08-19T02:46:20;101241.74;;;18.76;61.75
42361;BME280;54542;51.562;0.004;2022-08-19T02:48:49;101243.96;;;18.89;60.76
42361;BME280;54542;51.562;0.004;2022-08-19T02:51:18;101244.24;;;18.65;61.59
42361;BME280;54542;51.562;0.004;2022-08-19T02:53:46;101241.62;;;18.91;61.75
42361;BME280;54542;51.562;0.004;2022-08-19T02:56:14;101243.22;;;18.36;62.75
42361;BME280;54542;51.562;0.004;2022-08-19T02:58:42;101249.36;;;17.83;64.58
42361;BME280;54542;51.562;0.004;2022-08-19T03:01:09;101245.01;;;17.71;63.30
42361;BME280;54542;51.562;0.004;2022-08-19T03:03:37;101243.26;;;18.38;62.42
42361;BME280;54542;51.562;0.004;2022-08-19T03:06:07;101245.41;;;18.55;61.67
42361;BME280;54542;51.562;0.004;2022-08-19T03:08:36;101249.87;;;18.47;61.88
42361;BME280;54542;51.562;0.004;2022-08-19T03:11:04;101253.08;;;18.33;63.11
42361;BME280;54542;51.562;0.004;2022-08-19T03:13:32;101256.72;;;18.85;62.05
42361;BME280;54542;51.562;0.004;2022-08-19T03:15:59;101257.69;;;18.89;61.89
42361;BME280;54542;51.562;0.004;2022-08-19T03:18:31;101255.32;;;18.45;61.20
42361;BME280;54542;51.562;0.004;2022-08-19T03:20:58;101256.87;;;19.16;61.19
42361;BME280;54542;51.562;0.004;2022-08-19T03:23:26;101253.13;;;18.81;61.00
42361;BME280;54542;51.562;0.004;2022-08-19T03:25:54;101247.28;;;18.99;60.80
42361;BME280;54542;51.562;0.004;2022-08-19T03:28:21;101247.03;;;19.50;60.40
42361;BME280;54542;51.562;0.004;2022-08-19T03:30:58;101246.96;;;18.94;60.52
42361;BME280;54542;51.562;0.004;2022-08-19T03:33:26;101245.94;;;18.54;62.03
42361;BME280;54542;51.562;0.004;2022-08-19T03:36:06;101244.23;;;18.50;61.69
42361;BME280;54542;51.562;0.004;2022-08-19T03:38:36;101248.19;;;18.60;61.90
42361;BME280;54542;51.562;0.004;2022-08-19T03:41:05;101249.22;;;18.87;62.00
42361;BME280;54542;51.562;0.004;2022-08-19T03:43:33;101248.56;;;18.30;63.64
42361;BME280;54542;51.562;0.004;2022-08-19T03:46:03;101250.01;;;18.27;64.04
42361;BME280;54542;51.562;0.004;2022-08-19T03:48:32;101252.97;;;18.38;64.41
42361;BME280;54542;51.562;0.004;2022-08-19T03:51:00;101255.19;;;18.74;63.43
42361;BME280;54542;51.562;0.004;2022-08-19T03:53:29;101255.38;;;18.50;63.14
42361;BME280;54542;51.562;0.004;2022-08-19T03:55:58;101255.50;;;18.95;62.92
42361;BME280;54542;51.562;0.004;2022-08-19T03:58:26;101253.46;;;18.12;64.48
42361;BME280;54542;51.562;0.004;2022-08-19T04:00:55;101253.36;;;16.89;67.96
42361;BME280;54542;51.562;0.004;2022-08-19T04:03:23;101252.63;;;18.07;66.22
42361;BME280;54542;51.562;0.004;2022-08-19T04:05:51;101256.28;;;17.98;65.99
42361;BME280;54542;51.562;0.004;2022-08-19T04:08:18;101251.06;;;18.43;66.90
42361;BME280;54542;51.562;0.004;2022-08-19T04:10:46;101250.68;;;17.68;68.06
42361;BME280;54542;51.562;0.004;2022-08-19T04:13:14;101251.25;;;18.21;67.71
42361;BME280;54542;51.562;0.004;2022-08-19T04:15:42;101255.03;;;18.40;66.33
42361;BME280;54542;51.562;0.004;2022-08-19T04:18:10;101254.46;;;18.01;65.63
42361;BME280;54542;51.562;0.004;2022-08-19T04:20:40;101253.92;;;18.15;66.12
42361;BME280;54542;51.562;0.004;2022-08-19T04:23:08;101256.68;;;18.00;66.94
42361;BME280;54542;51.562;0.004;2022-08-19T04:25:37;101254.53;;;18.15;65.21
42361;BME280;54542;51.562;0.004;2022-08-19T04:28:05;101260.59;;;18.07;64.78
42361;BME280;54542;51.562;0.004;2022-08-19T04:30:38;101260.65;;;17.97;64.80
42361;BME280;54542;51.562;0.004;2022-08-19T04:33:05;101261.70;;;17.95;65.46
42361;BME280;54542;51.562;0.004;2022-08-19T04:35:36;101258.80;;;18.33;65.35
42361;BME280;54542;51.562;0.004;2022-08-19T04:38:05;101261.30;;;18.31;66.07
42361;BME280;54542;51.562;0.004;2022-08-19T04:40:34;101263.18;;;18.46;64.66
42361;BME280;54542;51.562;0.004;2022-08-19T04:43:06;101266.46;;;18.51;64.53
42361;BME280;54542;51.562;0.004;2022-08-19T04:45:32;101260.91;;;17.45;68.28
42361;BME280;54542;51.562;0.004;2022-08-19T04:47:59;101267.07;;;17.87;66.35
42361;BME280;54542;51.562;0.004;2022-08-19T04:50:27;101269.78;;;18.45;66.40
42361;BME280;54542;51.562;0.004;2022-08-19T04:52:54;101265.90;;;17.62;67.20
42361;BME280;54542;51.562;0.004;2022-08-19T04:55:21;101270.22;;;18.03;66.45
42361;BME280;54542;51.562;0.004;2022-08-19T04:57:49;101274.39;;;18.61;65.26
42361;BME280;54542;51.562;0.004;2022-08-19T05:00:16;101273.92;;;18.68;64.52
42361;BME280;54542;51.562;0.004;2022-08-19T05:02:44;101272.73;;;18.17;66.36
42361;BME280;54542;51.562;0.004;2022-08-19T05:05:11;101279.85;;;18.65;65.01
42361;BME280;54542;51.562;0.004;2022-08-19T05:07:38;101288.39;;;18.37;66.06
42361;BME280;54542;51.562;0.004;2022-08-19T05:10:06;101288.82;;;17.91;66.66
42361;BME280;54542;51.562;0.004;2022-08-19T05:12:34;101289.87;;;18.24;66.49
42361;BME280;54542;51.562;0.004;2022-08-19T05:15:04;101287.32;;;17.77;66.47
42361;BME280;54542;51.562;0.004;2022-08-19T05:17:33;101282.36;;;17.73;68.65
42361;BME280;54542;51.562;0.004;2022-08-19T05:20:00;101284.04;;;17.74;67.37
42361;BME280;54542;51.562;0.004;2022-08-19T05:22:27;101282.79;;;18.05;68.61
42361;BME280;54542;51.562;0.004;2022-08-19T05:24:54;101287.30;;;18.80;66.81
42361;BME280;54542;51.562;0.004;2022-08-19T05:27:22;101288.85;;;18.03;66.71
42361;BME280;54542;51.562;0.004;2022-08-19T05:29:50;101291.83;;;17.53;67.51
42361;BME280;54542;51.562;0.004;2022-08-19T05:32:18;101295.64;;;18.44;67.68
42361;BME280;54542;51.562;0.004;2022-08-19T05:34:44;101298.80;;;17.71;66.39
42361;BME280;54542;51.562;0.004;2022-08-19T05:37:12;101296.09;;;18.05;67.21
42361;BME280;54542;51.562;0.004;2022-08-19T05:39:40;101297.88;;;17.98;65.95
42361;BME280;54542;51.562;0.004;2022-08-19T05:42:09;101295.94;;;18.58;64.48
42361;BME280;54542;51.562;0.004;2022-08-19T05:44:39;101295.00;;;17.90;65.31
42361;BME280;54542;51.562;0.004;2022-08-19T05:47:07;101296.95;;;17.92;63.87
42361;BME280;54542;51.562;0.004;2022-08-19T05:49:36;101306.27;;;18.43;63.54
42361;BME280;54542;51.562;0.004;2022-08-19T05:52:05;101308.27;;;16.85;66.43
42361;BME280;54542;51.562;0.004;2022-08-19T05:54:33;101310.47;;;17.96;66.83
42361;BME280;54542;51.562;0.004;2022-08-19T05:57:01;101312.14;;;18.31;64.01
42361;BME280;54542;51.562;0.004;2022-08-19T05:59:28;101311.62;;;17.84;65.79
42361;BME280;54542;51.562;0.004;2022-08-19T06:01:56;101308.39;;;17.60;64.67
42361;BME280;54542;51.562;0.004;2022-08-19T06:04:24;101316.52;;;18.24;63.96
42361;BME280;54542;51.562;0.004;2022-08-19T06:06:53;101313.89;;;18.33;63.81
42361;BME280;54542;51.562;0.004;2022-08-19T06:09:21;101310.53;;;17.70;63.31
42361;BME280;54542;51.562;0.004;2022-08-19T06:11:51;101311.67;;;18.21;61.78
42361;BME280;54542;51.562;0.004;2022-08-19T06:14:21;101322.06;;;18.39;59.21
42361;BME280;54542;51.562;0.004;2022-08-19T06:16:49;101312.43;;;18.09;61.69
42361;BME280;54542;51.562;0.004;2022-08-19T06:19:17;101312.98;;;17.68;62.43
42361;BME280;54542;51.562;0.004;2022-08-19T06:21:46;101311.47;;;17.54;62.52
42361;BME280;54542;51.562;0.004;2022-08-19T06:24:17;101312.35;;;17.89;61.03
42361;BME280;54542;51.562;0.004;2022-08-19T06:26:47;101313.80;;;18.06;60.50
42361;BME280;54542;51.562;0.004;2022-08-19T06:29:16;101307.90;;;17.17;61.55
42361;BME280;54542;51.562;0.004;2022-08-19T06:31:45;101310.46;;;17.78;58.31
42361;BME280;54542;51.562;0.004;2022-08-19T06:34:14;101310.47;;;18.09;58.35
42361;BME280;54542;51.562;0.004;2022-08-19T06:36:43;101315.77;;;18.70;56.43
42361;BME280;54542;51.562;0.004;2022-08-19T06:39:13;101321.08;;;18.24;57.18
42361;BME280;54542;51.562;0.004;2022-08-19T06:41:42;101321.94;;;18.06;56.89
42361;BME280;54542;51.562;0.004;2022-08-19T06:44:11;101324.62;;;18.84;54.01
42361;BME280;54542;51.562;0.004;2022-08-19T06:46:40;101325.29;;;17.93;54.79
42361;BME280;54542;51.562;0.004;2022-08-19T06:49:07;101324.48;;;18.16;52.86
42361;BME280;54542;51.562;0.004;2022-08-19T06:51:35;101326.97;;;18.77;51.25
42361;BME280;54542;51.562;0.004;2022-08-19T06:54:03;101326.87;;;18.18;51.75
42361;BME280;54542;51.562;0.004;2022-08-19T06:56:31;101330.77;;;17.86;52.91
42361;BME280;54542;51.562;0.004;2022-08-19T06:58:59;101334.96;;;18.35;52.79
42361;BME280;54542;51.562;0.004;2022-08-19T07:01:26;101333.21;;;18.43;51.38
42361;BME280;54542;51.562;0.004;2022-08-19T07:03:54;101334.15;;;18.16;51.19
42361;BME280;54542;51.562;0.004;2022-08-19T07:06:22;101338.60;;;18.60;49.59
42361;BME280;54542;51.562;0.004;2022-08-19T07:08:49;101338.76;;;18.12;50.37
42361;BME280;54542;51.562;0.004;2022-08-19T07:11:18;101344.95;;;18.34;50.47
42361;BME280;54542;51.562;0.004;2022-08-19T07:13:45;101347.09;;;17.41;50.20
42361;BME280;54542;51.562;0.004;2022-08-19T07:16:15;101347.70;;;17.62;51.54
42361;BME280;54542;51.562;0.004;2022-08-19T07:18:43;101352.65;;;17.94;50.91
42361;BME280;54542;51.562;0.004;2022-08-19T07:21:13;101354.24;;;18.61;49.13
42361;BME280;54542;51.562;0.004;2022-08-19T07:23:41;101356.51;;;18.15;49.62
42361;BME280;54542;51.562;0.004;2022-08-19T07:26:12;101359.95;;;18.61;48.89
42361;BME280;54542;51.562;0.004;2022-08-19T07:28:39;101357.86;;;18.28;49.28
42361;BME280;54542;51.562;0.004;2022-08-19T07:31:07;101360.95;;;18.18;50.05
42361;BME280;54542;51.562;0.004;2022-08-19T07:33:34;101362.51;;;18.00;49.07
42361;BME280;54542;51.562;0.004;2022-08-19T07:36:03;101355.90;;;18.32;48.14
42361;BME280;54542;51.562;0.004;2022-08-19T07:38:30;101359.18;;;18.57;47.39
42361;BME280;54542;51.562;0.004;2022-08-19T07:40:58;101354.27;;;18.53;47.61
42361;BME280;54542;51.562;0.004;2022-08-19T07:43:26;101348.20;;;18.44;47.06
42361;BME280;54542;51.562;0.004;2022-08-19T07:45:54;101349.78;;;19.53;46.04
42361;BME280;54542;51.562;0.004;2022-08-19T07:48:22;101348.19;;;18.71;46.87
42361;BME280;54542;51.562;0.004;2022-08-19T07:50:49;101354.36;;;19.39;47.07
42361;BME280;54542;51.562;0.004;2022-08-19T07:53:17;101350.28;;;19.36;46.39
42361;BME280;54542;51.562;0.004;2022-08-19T07:55:45;101353.05;;;19.07;46.52
42361;BME280;54542;51.562;0.004;2022-08-19T07:58:17;101342.85;;;18.48;49.04
42361;BME280;54542;51.562;0.004;2022-08-19T08:00:47;101354.67;;;19.63;46.64
42361;BME280;54542;51.562;0.004;2022-08-19T08:03:17;101347.58;;;18.37;47.30
42361;BME280;54542;51.562;0.004;2022-08-19T08:05:46;101355.75;;;18.82;47.37
42361;BME280;54542;51.562;0.004;2022-08-19T08:08:14;101361.42;;;18.37;48.43
42361;BME280;54542;51.562;0.004;2022-08-19T08:10:41;101360.11;;;18.05;48.50
42361;BME280;54542;51.562;0.004;2022-08-19T08:13:09;101360.32;;;18.05;48.68
42361;BME280;54542;51.562;0.004;2022-08-19T08:15:38;101360.05;;;18.22;50.16
42361;BME280;54542;51.562;0.004;2022-08-19T08:18:05;101367.15;;;18.74;49.67
42361;BME280;54542;51.562;0.004;2022-08-19T08:20:33;101361.69;;;18.23;48.41
42361;BME280;54542;51.562;0.004;2022-08-19T08:23:00;101363.11;;;18.56;49.12
42361;BME280;54542;51.562;0.004;2022-08-19T08:25:28;101364.62;;;18.93;46.71
42361;BME280;54542;51.562;0.004;2022-08-19T08:27:56;101366.03;;;19.13;44.05
42361;BME280;54542;51.562;0.004;2022-08-19T08:30:25;101363.86;;;19.95;42.03
42361;BME280;54542;51.562;0.004;2022-08-19T08:32:53;101366.71;;;19.85;41.54
42361;BME280;54542;51.562;0.004;2022-08-19T08:35:23;101363.49;;;18.70;43.50
42361;BME280;54542;51.562;0.004;2022-08-19T08:37:53;101360.57;;;19.19;41.97
42361;BME280;54542;51.562;0.004;2022-08-19T08:40:26;101364.01;;;18.51;42.44
42361;BME280;54542;51.562;0.004;2022-08-19T08:43:02;101366.05;;;19.00;41.63
42361;BME280;54542;51.562;0.004;2022-08-19T08:45:32;101362.95;;;18.93;42.95
42361;BME280;54542;51.562;0.004;2022-08-19T08:48:08;101365.14;;;18.61;43.94
42361;BME280;54542;51.562;0.004;2022-08-19T08:50:42;101367.26;;;18.66;44.84
42361;BME280;54542;51.562;0.004;2022-08-19T08:53:14;101371.30;;;18.51;43.45
42361;BME280;54542;51.562;0.004;2022-08-19T08:55:44;101368.51;;;18.51;43.25
42361;BME280;54542;51.562;0.004;2022-08-19T08:58:17;101369.86;;;18.66;43.43
42361;BME280;54542;51.562;0.004;2022-08-19T09:00:48;101371.51;;;17.79;43.28
42361;BME280;54542;51.562;0.004;2022-08-19T09:03:19;101372.99;;;18.63;42.94
42361;BME280;54542;51.562;0.004;2022-08-19T09:05:55;101368.96;;;18.02;43.70
42361;BME280;54542;51.562;0.004;2022-08-19T09:08:33;101370.96;;;18.56;43.78
42361;BME280;54542;51.562;0.004;2022-08-19T09:11:07;101375.93;;;18.28;44.55
42361;BME280;54542;51.562;0.004;2022-08-19T09:13:42;101365.47;;;18.98;43.79
42361;BME280;54542;51.562;0.004;2022-08-19T09:16:16;101359.03;;;18.37;44.89
42361;BME280;54542;51.562;0.004;2022-08-19T09:18:48;101361.05;;;19.09;43.61
42361;BME280;54542;51.562;0.004;2022-08-19T09:21:16;101355.90;;;18.04;43.17
42361;BME280;54542;51.562;0.004;2022-08-19T09:23:43;101362.88;;;18.05;45.02
42361;BME280;54542;51.562;0.004;2022-08-19T09:26:14;101355.92;;;18.13;44.84
42361;BME280;54542;51.562;0.004;2022-08-19T09:28:45;101355.61;;;18.14;43.99
42361;BME280;54542;51.562;0.004;2022-08-19T09:31:15;101357.81;;;19.09;43.87
42361;BME280;54542;51.562;0.004;2022-08-19T09:33:42;101353.76;;;18.01;45.27
42361;BME280;54542;51.562;0.004;2022-08-19T09:36:13;101354.79;;;18.59;45.20
42361;BME280;54542;51.562;0.004;2022-08-19T09:38:41;101356.10;;;19.08;44.74
42361;BME280;54542;51.562;0.004;2022-08-19T09:41:09;101357.17;;;19.68;42.68
42361;BME280;54542;51.562;0.004;2022-08-19T09:43:37;101355.14;;;17.66;45.09
42361;BME280;54542;51.562;0.004;2022-08-19T09:46:07;101364.13;;;18.75;46.15
42361;BME280;54542;51.562;0.004;2022-08-19T09:48:36;101367.20;;;18.77;45.27
42361;BME280;54542;51.562;0.004;2022-08-19T09:51:05;101362.01;;;18.87;44.22
42361;BME280;54542;51.562;0.004;2022-08-19T09:53:33;101358.56;;;18.78;43.76
42361;BME280;54542;51.562;0.004;2022-08-19T09:56:01;101355.96;;;19.44;43.62
42361;BME280;54542;51.562;0.004;2022-08-19T09:58:28;101359.52;;;19.20;42.89
42361;BME280;54542;51.562;0.004;2022-08-19T10:00:57;101357.27;;;19.65;42.31
42361;BME280;54542;51.562;0.004;2022-08-19T10:03:25;101355.94;;;19.43;42.87
42361;BME280;54542;51.562;0.004;2022-08-19T10:05:53;101366.65;;;19.47;43.04
42361;BME280;54542;51.562;0.004;2022-08-19T10:08:24;101363.89;;;19.20;42.75
42361;BME280;54542;51.562;0.004;2022-08-19T10:10:52;101362.14;;;20.11;42.33
42361;BME280;54542;51.562;0.004;2022-08-19T10:13:21;101359.91;;;20.23;40.74
42361;BME280;54542;51.562;0.004;2022-08-19T10:15:49;101356.89;;;20.31;41.16
42361;BME280;54542;51.562;0.004;2022-08-19T10:18:19;101358.79;;;20.07;41.41
42361;BME280;54542;51.562;0.004;2022-08-19T10:20:48;101359.13;;;20.69;40.13
42361;BME280;54542;51.562;0.004;2022-08-19T10:23:15;101368.96;;;20.07;41.08
42361;BME280;54542;51.562;0.004;2022-08-19T10:25:43;101375.61;;;19.95;42.43
42361;BME280;54542;51.562;0.004;2022-08-19T10:28:11;101380.11;;;19.72;42.42
42361;BME280;54542;51.562;0.004;2022-08-19T10:30:39;101375.99;;;20.07;40.64
42361;BME280;54542;51.562;0.004;2022-08-19T10:33:07;101376.80;;;20.83;39.87
42361;BME280;54542;51.562;0.004;2022-08-19T10:35:34;101376.87;;;20.63;40.36
42361;BME280;54542;51.562;0.004;2022-08-19T10:38:02;101369.24;;;21.56;37.34
42361;BME280;54542;51.562;0.004;2022-08-19T10:40:29;101362.04;;;21.36;38.22
42361;BME280;54542;51.562;0.004;2022-08-19T10:42:57;101371.98;;;20.05;38.76
42361;BME280;54542;51.562;0.004;2022-08-19T10:45:25;101370.00;;;19.89;39.89
42361;BME280;54542;51.562;0.004;2022-08-19T10:47:53;101370.74;;;19.64;39.73
42361;BME280;54542;51.562;0.004;2022-08-19T10:50:20;101371.47;;;19.95;39.63
42361;BME280;54542;51.562;0.004;2022-08-19T10:52:50;101365.96;;;19.71;39.42
42361;BME280;54542;51.562;0.004;2022-08-19T10:55:20;101371.25;;;21.40;37.22
42361;BME280;54542;51.562;0.004;2022-08-19T10:57:49;101369.46;;;21.87;37.08
42361;BME280;54542;51.562;0.004;2022-08-19T11:00:16;101363.69;;;21.28;36.62
42361;BME280;54542;51.562;0.004;2022-08-19T11:02:44;101368.35;;;20.57;37.67
42361;BME280;54542;51.562;0.004;2022-08-19T11:05:12;101362.76;;;21.01;36.61
42361;BME280;54542;51.562;0.004;2022-08-19T11:07:40;101368.48;;;20.26;37.40
42361;BME280;54542;51.562;0.004;2022-08-19T11:10:10;101371.77;;;20.62;37.56
42361;BME280;54542;51.562;0.004;2022-08-19T11:12:40;101375.57;;;21.46;36.57
42361;BME280;54542;51.562;0.004;2022-08-19T11:15:09;101378.89;;;20.97;36.59
42361;BME280;54542;51.562;0.004;2022-08-19T11:17:37;101374.55;;;20.15;36.20
42361;BME280;54542;51.562;0.004;2022-08-19T11:20:05;101377.75;;;21.78;36.45
42361;BME280;54542;51.562;0.004;2022-08-19T11:22:33;101380.94;;;21.01;36.49
42361;BME280;54542;51.562;0.004;2022-08-19T11:25:01;101381.20;;;21.38;35.18
42361;BME280;54542;51.562;0.004;2022-08-19T11:27:28;101379.60;;;20.90;36.25
42361;BME280;54542;51.562;0.004;2022-08-19T11:29:56;101379.82;;;22.09;34.76
42361;BME280;54542;51.562;0.004;2022-08-19T11:32:24;101380.97;;;20.51;35.97
42361;BME280;54542;51.562;0.004;2022-08-19T11:34:51;101377.25;;;20.41;36.48
42361;BME280;54542;51.562;0.004;2022-08-19T11:37:19;101380.34;;;20.65;35.47
42361;BME280;54542;51.562;0.004;2022-08-19T11:39:46;101382.49;;;21.30;34.84
42361;BME280;54542;51.562;0.004;2022-08-19T11:42:14;101395.94;;;21.85;32.91
42361;BME280;54542;51.562;0.004;2022-08-19T11:44:41;101388.83;;;21.14;34.72
42361;BME280;54542;51.562;0.004;2022-08-19T11:47:09;101382.62;;;23.01;32.20
42361;BME280;54542;51.562;0.004;2022-08-19T11:49:36;101382.95;;;21.60;32.79
42361;BME280;54542;51.562;0.004;2022-08-19T11:52:04;101380.96;;;21.92;33.51
42361;BME280;54542;51.562;0.004;2022-08-19T11:54:32;101378.15;;;20.39;33.36
42361;BME280;54542;51.562;0.004;2022-08-19T11:56:59;101383.41;;;22.48;33.35
42361;BME280;54542;51.562;0.004;2022-08-19T11:59:27;101386.49;;;23.09;31.80
42361;BME280;54542;51.562;0.004;2022-08-19T12:01:54;101385.93;;;21.84;32.53
42361;BME280;54542;51.562;0.004;2022-08-19T12:04:22;101385.36;;;22.18;33.76
42361;BME280;54542;51.562;0.004;2022-08-19T12:06:49;101387.18;;;23.92;31.20
42361;BME280;54542;51.562;0.004;2022-08-19T12:09:17;101389.88;;;25.18;29.01
42361;BME280;54542;51.562;0.004;2022-08-19T12:11:45;101391.89;;;25.07;27.82
42361;BME280;54542;51.562;0.004;2022-08-19T12:14:13;101395.36;;;23.69;29.02
42361;BME280;54542;51.562;0.004;2022-08-19T12:16:41;101386.51;;;24.14;28.23
42361;BME280;54542;51.562;0.004;2022-08-19T12:19:08;101384.83;;;23.82;28.41
42361;BME280;54542;51.562;0.004;2022-08-19T12:21:35;101389.17;;;24.07;27.47
42361;BME280;54542;51.562;0.004;2022-08-19T12:24:05;101388.81;;;25.68;26.89
42361;BME280;54542;51.562;0.004;2022-08-19T12:26:33;101384.26;;;26.07;26.91
42361;BME280;54542;51.562;0.004;2022-08-19T12:29:00;101387.38;;;27.16;25.77
42361;BME280;54542;51.562;0.004;2022-08-19T12:31:28;101388.76;;;26.69;24.64
42361;BME280;54542;51.562;0.004;2022-08-19T12:33:56;101388.61;;;26.23;24.55
42361;BME280;54542;51.562;0.004;2022-08-19T12:36:24;101390.02;;;26.50;25.17
42361;BME280;54542;51.562;0.004;2022-08-19T12:38:51;101390.63;;;25.86;24.51
42361;BME280;54542;51.562;0.004;2022-08-19T12:41:19;101383.14;;;26.59;23.84
42361;BME280;54542;51.562;0.004;2022-08-19T12:43:48;101383.48;;;25.55;24.05
42361;BME280;54542;51.562;0.004;2022-08-19T12:46:15;101383.65;;;25.41;24.43
42361;BME280;54542;51.562;0.004;2022-08-19T12:48:42;101384.12;;;24.38;25.31
42361;BME280;54542;51.562;0.004;2022-08-19T12:51:12;101389.13;;;24.01;26.71
42361;BME280;54542;51.562;0.004;2022-08-19T12:53:40;101384.05;;;23.49;26.70
42361;BME280;54542;51.562;0.004;2022-08-19T12:56:09;101382.85;;;24.15;27.52
42361;BME280;54542;51.562;0.004;2022-08-19T12:58:37;101382.75;;;22.76;27.09
42361;BME280;54542;51.562;0.004;2022-08-19T13:01:09;101381.13;;;24.07;27.18
42361;BME280;54542;51.562;0.004;2022-08-19T13:03:38;101377.21;;;25.43;25.56
42361;BME280;54542;51.562;0.004;2022-08-19T13:06:06;101374.99;;;25.79;24.87
42361;BME280;54542;51.562;0.004;2022-08-19T13:08:34;101381.04;;;24.73;24.11
42361;BME280;54542;51.562;0.004;2022-08-19T13:11:12;101381.54;;;24.03;25.23
42361;BME280;54542;51.562;0.004;2022-08-19T13:13:42;101371.45;;;24.50;26.00
42361;BME280;54542;51.562;0.004;2022-08-19T13:16:11;101370.04;;;24.57;24.92
42361;BME280;54542;51.562;0.004;2022-08-19T13:18:41;101365.06;;;25.71;23.30
42361;BME280;54542;51.562;0.004;2022-08-19T13:21:10;101372.13;;;25.56;24.39
42361;BME280;54542;51.562;0.004;2022-08-19T13:23:37;101373.00;;;25.80;24.85
42361;BME280;54542;51.562;0.004;2022-08-19T13:26:07;101367.29;;;26.79;22.44
42361;BME280;54542;51.562;0.004;2022-08-19T13:28:35;101361.62;;;26.18;23.67
42361;BME280;54542;51.562;0.004;2022-08-19T13:31:02;101359.23;;;27.41;23.26
42361;BME280;54542;51.562;0.004;2022-08-19T13:33:30;101354.17;;;27.37;22.88
42361;BME280;54542;51.562;0.004;2022-08-19T13:35:58;101352.32;;;25.63;22.75
42361;BME280;54542;51.562;0.004;2022-08-19T13:38:27;101363.32;;;25.11;23.28
42361;BME280;54542;51.562;0.004;2022-08-19T13:40:55;101368.65;;;24.19;23.54
42361;BME280;54542;51.562;0.004;2022-08-19T13:43:25;101360.59;;;25.75;23.09
42361;BME280;54542;51.562;0.004;2022-08-19T13:45:54;101360.73;;;26.01;23.84
42361;BME280;54542;51.562;0.004;2022-08-19T13:48:22;101359.10;;;26.91;21.05
42361;BME280;54542;51.562;0.004;2022-08-19T13:50:50;101360.57;;;28.14;21.42
42361;BME280;54542;51.562;0.004;2022-08-19T13:53:17;101360.91;;;28.90;19.98
42361;BME280;54542;51.562;0.004;2022-08-19T13:55:45;101360.31;;;29.45;19.13
42361;BME280;54542;51.562;0.004;2022-08-19T13:58:14;101352.91;;;30.06;19.59
42361;BME280;54542;51.562;0.004;2022-08-19T14:00:44;101349.23;;;31.11;17.15
42361;BME280;54542;51.562;0.004;2022-08-19T14:03:11;101349.33;;;28.78;18.67
42361;BME280;54542;51.562;0.004;2022-08-19T14:05:38;101336.60;;;29.08;17.82
42361;BME280;54542;51.562;0.004;2022-08-19T14:08:06;101345.47;;;30.26;17.32
42361;BME280;54542;51.562;0.004;2022-08-19T14:10:34;101338.17;;;30.35;17.81
42361;BME280;54542;51.562;0.004;2022-08-19T14:13:03;101332.16;;;30.09;17.09
42361;BME280;54542;51.562;0.004;2022-08-19T14:15:31;101329.10;;;31.60;18.29
42361;BME280;54542;51.562;0.004;2022-08-19T14:17:58;101329.06;;;32.69;17.96
42361;BME280;54542;51.562;0.004;2022-08-19T14:20:26;101326.50;;;33.29;15.12
42361;BME280;54542;51.562;0.004;2022-08-19T14:22:55;101318.64;;;30.43;17.18
42361;BME280;54542;51.562;0.004;2022-08-19T14:25:25;101324.19;;;31.05;16.99
42361;BME280;54542;51.562;0.004;2022-08-19T14:27:53;101326.25;;;30.76;17.83